Time;durP1;ratioP1;P1;durP2;ratioP2;P2;SDS_P1;SDS_P2;PMS_P1;PMS_P2;Temp;Humidity;BMP_temperature;BMP_pressure;BME280_temperature;BME280_humidity;BME280_pressure;Samples;Min_cycle;Max_cycle;Signal;HPM_P1;HPM_P2
2022/04/08 00:00:26;;;;;;;12.67;4.67;;;;;;;12.57;66.47;99986.50;2570514;23;20147;-67
2022/04/08 00:01:27;;;;;;;10.80;5.10;;;;;;;12.57;66.42;99991.28;2557070;23;20916;-67
2022/04/08 00:02:27;;;;;;;9.40;4.53;;;;;;;11.93;66.42;99890.38;2557318;23;20150;-67
2022/04/08 00:03:28;;;;;;;7.60;4.50;;;;;;;12.52;66.30;99987.13;2570112;23;20587;-67
2022/04/08 00:04:30;;;;;;;6.70;4.30;;;;;;;12.62;66.33;99994.25;2570354;23;20679;-67
2022/04/08 00:05:31;;;;;;;11.90;5.17;;;;;;;12.61;66.49;99994.69;2570273;23;20175;-67
2022/04/08 00:06:31;;;;;;;11.23;4.93;;;;;;;12.57;66.24;100000.41;2570360;23;20381;-67
2022/04/08 00:07:32;;;;;;;9.37;4.87;;;;;;;12.47;66.36;99973.03;2570355;23;20518;-67
2022/04/08 00:08:32;;;;;;;9.40;5.17;;;;;;;11.79;66.40;99885.38;2570300;23;20153;-67
2022/04/08 00:09:33;;;;;;;6.60;4.60;;;;;;;12.46;66.46;99980.59;2570451;23;20144;-68
2022/04/08 00:10:33;;;;;;;9.53;4.70;;;;;;;12.58;66.37;99998.38;2570447;23;20147;-67
2022/04/08 00:11:34;;;;;;;6.80;4.60;;;;;;;12.62;66.30;99993.44;2570220;23;20205;-68
2022/04/08 00:12:34;;;;;;;9.13;4.37;;;;;;;12.68;66.19;99992.38;2570470;23;20283;-67
2022/04/08 00:13:35;;;;;;;9.10;5.17;;;;;;;12.57;66.29;99980.16;2570296;23;20207;-67
2022/04/08 00:14:36;;;;;;;9.60;5.03;;;;;;;11.75;66.38;99882.00;2570621;23;20149;-67
2022/04/08 00:15:38;;;;;;;9.17;5.30;;;;;;;12.46;66.30;99983.38;2570359;23;20173;-67
2022/04/08 00:16:38;;;;;;;7.05;4.90;;;;;;;12.35;66.37;99962.84;2570307;23;20442;-67
2022/04/08 00:17:39;;;;;;;8.67;4.80;;;;;;;12.46;66.49;99986.16;2570353;23;20479;-67
2022/04/08 00:18:39;;;;;;;8.87;4.47;;;;;;;12.59;66.20;100002.69;2570126;23;20144;-67
2022/04/08 00:19:40;;;;;;;10.87;4.43;;;;;;;12.58;66.24;99998.38;2570274;23;20148;-67
2022/04/08 00:20:40;;;;;;;8.33;4.60;;;;;;;12.56;66.21;99990.50;2570296;23;20155;-67
2022/04/08 00:21:41;;;;;;;7.87;4.50;;;;;;;12.50;66.05;100000.69;2569952;23;20156;-67
2022/04/08 00:22:42;;;;;;;9.47;4.87;;;;;;;12.47;66.38;99990.50;2570314;23;20154;-68
2022/04/08 00:23:43;;;;;;;10.07;4.70;;;;;;;12.52;66.32;100008.56;2570156;23;20383;-67
2022/04/08 00:24:44;;;;;;;9.60;4.70;;;;;;;12.44;66.45;99998.97;2570495;23;20620;-67
2022/04/08 00:25:45;;;;;;;7.80;4.50;;;;;;;12.41;66.42;100000.66;2570254;23;20977;-67
2022/04/08 00:26:48;;;;;;;11.30;4.70;;;;;;;12.24;66.50;99979.19;2570249;23;20765;-67
2022/04/08 00:27:49;;;;;;;8.40;4.53;;;;;;;12.37;66.54;100008.38;2557001;23;20153;-66
2022/04/08 00:28:49;;;;;;;7.43;4.67;;;;;;;12.39;66.53;100007.91;2557194;23;20381;-65
2022/04/08 00:29:50;;;;;;;7.03;4.97;;;;;;;12.41;66.41;100002.69;2570463;23;20222;-65
2022/04/08 00:30:51;;;;;;;8.80;4.93;;;;;;;12.13;66.50;99956.59;2570311;23;20509;-65
2022/04/08 00:31:57;;;;;;;6.23;4.20;;;;;;;12.30;66.38;99991.97;2570080;23;20155;-66
2022/04/08 00:32:58;;;;;;;7.43;4.80;;;;;;;12.35;66.40;100002.50;2570423;23;20160;-65
2022/04/08 00:33:59;;;;;;;9.77;4.97;;;;;;;12.32;66.70;100005.44;2569705;23;20384;-65
2022/04/08 00:35:00;;;;;;;8.00;4.90;;;;;;;12.27;66.51;100006.81;2570363;23;20408;-65
2022/04/08 00:36:01;;;;;;;10.03;4.93;;;;;;;10.80;66.76;99782.31;2570274;23;20152;-65
2022/04/08 00:37:01;;;;;;;6.47;4.67;;;;;;;12.24;66.85;100002.16;2569933;23;20188;-65
2022/04/08 00:38:02;;;;;;;6.97;4.70;;;;;;;12.23;66.89;100003.41;2570197;23;20152;-65
2022/04/08 00:39:02;;;;;;;10.23;5.13;;;;;;;12.19;66.96;100011.09;2570449;23;20157;-65
2022/04/08 00:40:04;;;;;;;7.67;5.07;;;;;;;12.15;66.99;100007.66;2570201;23;20520;-65
2022/04/08 00:41:05;;;;;;;9.50;5.27;;;;;;;11.74;66.92;99960.16;2570181;23;20235;-66
2022/04/08 00:42:06;;;;;;;8.17;5.03;;;;;;;11.67;66.81;99932.66;2570153;23;20437;-65
2022/04/08 00:43:14;;;;;;;7.10;4.63;;;;;;;12.18;66.87;100011.53;2556836;23;20157;-66
2022/04/08 00:44:15;;;;;;;7.57;5.10;;;;;;;12.17;66.79;100015.56;2558712;23;20388;-65
2022/04/08 00:45:15;;;;;;;8.87;4.93;;;;;;;12.19;66.51;100008.31;2570186;23;20436;-66
2022/04/08 00:46:16;;;;;;;7.27;5.10;;;;;;;12.18;66.74;100006.00;2570184;23;20501;-65
2022/04/08 00:47:16;;;;;;;10.57;5.10;;;;;;;11.85;66.57;99960.53;2556691;23;20149;-65
2022/04/08 00:48:17;;;;;;;8.47;4.57;;;;;;;12.23;66.36;100006.19;2556980;23;20182;-65
2022/04/08 00:49:17;;;;;;;7.53;5.20;;;;;;;12.12;66.66;100002.25;2570553;23;20172;-65
2022/04/08 00:50:20;;;;;;;7.23;4.70;;;;;;;11.61;66.56;99920.63;2570262;23;20158;-65
2022/04/08 00:51:22;;;;;;;7.83;4.77;;;;;;;11.33;66.08;99882.88;2570175;23;20482;-66
2022/04/08 00:52:22;;;;;;;7.73;4.97;;;;;;;12.14;66.33;99997.03;2570267;23;20459;-65
2022/04/08 00:53:24;;;;;;;10.07;5.30;;;;;;;12.19;66.37;100008.31;2570044;23;20387;-65
2022/04/08 00:54:25;;;;;;;10.47;5.03;;;;;;;12.11;66.44;100018.19;2570201;23;20175;-65
2022/04/08 00:55:25;;;;;;;8.43;4.97;;;;;;;12.08;66.36;100002.41;2570209;23;20406;-65
2022/04/08 00:56:28;;;;;;;8.53;4.80;;;;;;;11.08;66.24;99858.06;2570356;23;20152;-65
2022/04/08 00:57:30;;;;;;;8.83;5.23;;;;;;;12.12;66.44;100008.59;2570058;23;20177;-65
2022/04/08 00:58:31;;;;;;;7.03;5.00;;;;;;;12.14;66.39;100013.72;2570298;23;20375;-65
2022/04/08 00:59:32;;;;;;;9.67;4.80;;;;;;;12.10;66.49;100005.50;2570197;23;20384;-65
2022/04/08 01:00:38;;;;;;;8.07;5.07;;;;;;;12.11;66.41;100004.28;2557048;23;20463;-65
2022/04/08 01:01:39;;;;;;;10.90;5.50;;;;;;;12.04;66.38;99999.00;2557824;23;20220;-66
2022/04/08 01:02:39;;;;;;;7.53;5.07;;;;;;;12.06;66.47;100016.00;2570254;23;20435;-65
2022/04/08 01:03:40;;;;;;;7.87;4.57;;;;;;;12.01;66.66;100013.03;2569738;23;20145;-65
2022/04/08 01:04:40;;;;;;;9.40;5.20;;;;;;;12.00;66.40;100017.78;2557024;23;20154;-65
2022/04/08 01:05:41;;;;;;;6.70;4.40;;;;;;;12.02;66.51;100017.34;2557123;23;20184;-65
2022/04/08 01:06:44;;;;;;;8.63;5.03;;;;;;;11.97;66.38;100006.84;2570211;23;20228;-65
2022/04/08 01:07:44;;;;;;;9.27;4.60;;;;;;;12.12;66.02;100019.72;2570263;23;20231;-65
2022/04/08 01:08:46;;;;;;;8.67;4.30;;;;;;;12.08;65.78;100002.41;2570280;23;20386;-65
2022/04/08 01:09:47;;;;;;;7.37;4.43;;;;;;;12.13;65.88;100020.47;2570434;23;20153;-65
2022/04/08 01:10:49;;;;;;;7.00;4.00;;;;;;;12.15;65.78;100010.44;2570397;23;20381;-65
2022/04/08 01:11:49;;;;;;;8.80;4.23;;;;;;;12.12;65.81;100010.59;2569968;23;20459;-65
2022/04/08 01:12:51;;;;;;;9.60;4.10;;;;;;;12.16;65.76;100006.47;2570472;23;20379;-65
2022/04/08 01:13:51;;;;;;;9.30;4.57;;;;;;;12.16;65.76;100017.56;2569956;23;20148;-65
2022/04/08 01:14:59;;;;;;;7.03;4.33;;;;;;;12.15;65.21;100001.38;2570226;23;20862;-65
2022/04/08 01:15:59;;;;;;;6.60;4.23;;;;;;;12.20;65.36;100017.44;2570189;23;20149;-65
2022/04/08 01:17:00;;;;;;;8.10;4.13;;;;;;;11.57;65.18;99929.06;2570104;23;20988;-66
2022/04/08 01:18:00;;;;;;;6.77;3.90;;;;;;;11.20;64.81;99857.22;2570296;23;20507;-65
2022/04/08 01:19:01;;;;;;;9.80;4.63;;;;;;;10.96;64.64;99812.56;2570371;23;20161;-65
2022/04/08 01:20:02;;;;;;;6.63;4.23;;;;;;;12.34;64.48;100017.63;2570292;23;20186;-65
2022/04/08 01:21:05;;;;;;;8.63;3.80;;;;;;;12.20;64.60;100007.06;2570307;23;20153;-65
2022/04/08 01:22:05;;;;;;;9.27;4.20;;;;;;;12.31;64.55;100003.88;2570189;23;20373;-65
2022/04/08 01:23:06;;;;;;;7.87;4.27;;;;;;;12.35;64.39;100010.06;2570131;23;20384;-65
2022/04/08 01:24:12;;;;;;;6.67;4.20;;;;;;;12.38;64.38;100021.03;2570197;23;20245;-65
2022/04/08 01:25:13;;;;;;;6.37;3.73;;;;;;;12.40;63.84;100010.22;2570398;23;20141;-67
2022/04/08 01:26:14;;;;;;;8.83;3.87;;;;;;;12.30;64.10;100005.13;2570122;23;20375;-67
2022/04/08 01:27:18;;;;;;;6.40;3.50;;;;;;;12.16;64.07;99986.25;2570248;23;20855;-67
2022/04/08 01:28:18;;;;;;;5.30;3.67;;;;;;;12.32;64.02;100011.75;2570149;23;20202;-67
2022/04/08 01:29:19;;;;;;;6.47;4.00;;;;;;;12.30;64.24;100008.66;2570431;23;20847;-67
2022/04/08 01:30:20;;;;;;;7.63;3.77;;;;;;;12.30;64.16;100013.44;2569800;23;20553;-67
2022/04/08 01:31:23;;;;;;;5.47;4.00;;;;;;;11.26;64.16;99855.38;2569843;23;20155;-67
2022/04/08 01:32:24;;;;;;;7.87;4.00;;;;;;;12.35;64.02;100010.84;2570313;23;20203;-67
2022/04/08 01:33:24;;;;;;;8.13;3.77;;;;;;;12.37;64.01;100005.59;2569802;23;20360;-67
2022/04/08 01:34:25;;;;;;;7.47;4.27;;;;;;;12.37;63.88;100007.59;2570160;23;20248;-67
2022/04/08 01:35:26;;;;;;;6.00;3.77;;;;;;;12.33;64.12;100016.09;2570209;23;20234;-68
2022/04/08 01:36:26;;;;;;;6.17;3.90;;;;;;;12.30;63.92;100014.22;2570162;23;20194;-67
2022/04/08 01:37:27;;;;;;;7.23;4.13;;;;;;;11.47;64.03;99904.50;2569829;23;20255;-68
2022/04/08 01:38:27;;;;;;;5.33;3.90;;;;;;;12.04;64.13;99987.88;2570126;23;20145;-67
2022/04/08 01:39:28;;;;;;;5.63;3.63;;;;;;;11.71;64.33;99945.19;2557161;23;20563;-67
2022/04/08 01:40:28;;;;;;;6.10;3.83;;;;;;;12.19;64.48;100022.19;2557047;23;20150;-68
2022/04/08 01:41:31;;;;;;;5.30;3.80;;;;;;;12.00;64.77;100011.47;2569984;23;20173;-67
2022/04/08 01:42:31;;;;;;;6.27;3.77;;;;;;;11.61;64.96;99970.56;2570249;23;20160;-67
2022/04/08 01:43:32;;;;;;;6.70;3.70;;;;;;;10.75;65.13;99821.69;2569974;23;20383;-67
2022/04/08 01:44:32;;;;;;;6.60;4.17;;;;;;;12.03;65.43;100028.00;2570135;23;20248;-67
2022/04/08 01:45:33;;;;;;;6.43;3.93;;;;;;;12.05;65.62;100033.09;2570029;23;20550;-67
2022/04/08 01:46:34;;;;;;;5.80;3.93;;;;;;;12.05;65.49;100035.88;2570171;23;20657;-67
2022/04/08 01:47:35;;;;;;;7.10;3.60;;;;;;;11.43;65.35;99929.59;2569807;23;20719;-67
2022/04/08 01:48:36;;;;;;;7.00;3.47;;;;;;;11.91;65.62;100009.44;2570244;23;20159;-67
2022/04/08 01:49:36;;;;;;;5.60;3.40;;;;;;;11.98;65.61;100017.50;2570284;23;20400;-67
2022/04/08 01:50:37;;;;;;;4.83;3.20;;;;;;;12.10;65.48;100027.72;2570203;23;20148;-67
2022/04/08 01:51:37;;;;;;;5.63;3.50;;;;;;;11.47;65.35;99926.72;2569968;23;20149;-67
2022/04/08 01:52:38;;;;;;;6.70;3.47;;;;;;;11.86;65.45;99998.94;2570165;23;20228;-67
2022/04/08 01:53:38;;;;;;;5.33;3.40;;;;;;;12.05;65.62;100035.88;2556871;23;20620;-67
2022/04/08 01:54:39;;;;;;;6.70;3.63;;;;;;;10.81;65.80;99844.81;2557153;23;20183;-67
2022/04/08 01:55:40;;;;;;;5.77;3.43;;;;;;;11.97;65.49;100012.38;2570125;23;20145;-67
2022/04/08 01:56:40;;;;;;;6.17;3.67;;;;;;;12.06;65.64;100027.09;2570182;23;20148;-67
2022/04/08 01:57:42;;;;;;;4.47;3.13;;;;;;;11.57;65.35;99947.69;2570122;23;20180;-67
2022/04/08 01:58:42;;;;;;;6.73;3.83;;;;;;;12.13;65.27;100026.03;2570301;23;20594;-67
2022/04/08 01:59:44;;;;;;;6.63;3.40;;;;;;;11.79;65.43;99992.88;2570021;23;20376;-67
2022/04/08 02:00:44;;;;;;;5.50;3.67;;;;;;;12.02;65.56;100025.69;2570212;23;20153;-67
2022/04/08 02:01:45;;;;;;;6.80;3.57;;;;;;;12.07;65.33;100055.63;2570079;23;20380;-67
2022/04/08 02:02:45;;;;;;;6.43;3.37;;;;;;;12.07;65.69;100027.84;2570261;23;20187;-67
2022/04/08 02:03:46;;;;;;;6.00;3.57;;;;;;;11.73;65.37;99983.59;2569771;23;20145;-67
2022/04/08 02:04:47;;;;;;;5.83;3.57;;;;;;;12.04;65.78;100023.22;2570119;23;20149;-67
2022/04/08 02:05:48;;;;;;;6.77;3.50;;;;;;;12.03;65.68;100025.22;2570145;23;20155;-67
2022/04/08 02:06:48;;;;;;;4.53;3.00;;;;;;;12.00;65.39;100015.03;2569981;23;20600;-67
2022/04/08 02:07:49;;;;;;;5.73;3.43;;;;;;;12.09;65.29;100023.41;2570205;23;20155;-67
2022/04/08 02:08:50;;;;;;;5.10;3.40;;;;;;;12.14;65.15;100025.56;2570269;23;20224;-67
2022/04/08 02:09:50;;;;;;;6.53;3.47;;;;;;;12.18;65.05;100028.22;2570296;23;20156;-67
2022/04/08 02:10:53;;;;;;;8.07;3.67;;;;;;;12.20;64.88;100025.75;2570330;23;20171;-67
2022/04/08 02:11:54;;;;;;;6.27;3.30;;;;;;;12.23;64.56;100031.16;2556704;23;20152;-67
2022/04/08 02:12:54;;;;;;;7.57;3.70;;;;;;;12.26;64.67;100024.72;2557064;23;20457;-67
2022/04/08 02:13:55;;;;;;;6.27;3.47;;;;;;;12.22;64.52;100026.84;2569597;23;20381;-68
2022/04/08 02:14:56;;;;;;;4.50;2.90;;;;;;;12.29;64.27;100021.00;2570156;23;20162;-67
2022/04/08 02:15:56;;;;;;;5.10;3.00;;;;;;;10.95;64.23;99822.13;2570128;23;20150;-67
2022/04/08 02:16:57;;;;;;;4.37;3.00;;;;;;;12.30;64.22;100028.09;2569721;23;20153;-67
2022/04/08 02:17:57;;;;;;;5.63;3.30;;;;;;;12.31;64.44;100029.66;2570106;23;20149;-67
2022/04/08 02:18:58;;;;;;;7.00;3.40;;;;;;;12.28;64.27;100024.22;2570153;23;20148;-67
2022/04/08 02:19:58;;;;;;;6.10;3.30;;;;;;;12.24;64.39;100029.94;2570166;23;20153;-67
2022/04/08 02:21:00;;;;;;;4.80;3.70;;;;;;;12.25;64.20;100017.59;2570302;23;20155;-67
2022/04/08 02:22:01;;;;;;;5.40;3.40;;;;;;;12.25;64.02;100016.84;2569931;23;20387;-67
2022/04/08 02:23:03;;;;;;;3.97;3.10;;;;;;;12.29;63.81;100026.56;2570101;23;20384;-67
2022/04/08 02:24:04;;;;;;;7.03;3.10;;;;;;;11.92;64.20;99991.56;2556668;23;20160;-67
2022/04/08 02:25:05;;;;;;;6.60;3.60;;;;;;;12.29;64.06;100020.25;2557151;23;20380;-67
2022/04/08 02:26:06;;;;;;;5.37;3.20;;;;;;;12.31;63.98;100015.00;2570032;23;20402;-67
2022/04/08 02:27:07;;;;;;;5.43;3.40;;;;;;;12.36;63.80;100023.50;2569889;23;20378;-67
2022/04/08 02:28:07;;;;;;;4.20;3.00;;;;;;;11.82;63.73;99951.09;2570241;23;20153;-67
2022/04/08 02:29:08;;;;;;;4.63;3.20;;;;;;;12.21;64.10;100027.31;2556932;23;20183;-67
2022/04/08 02:30:09;;;;;;;5.13;3.00;;;;;;;12.11;64.58;100023.72;2556847;23;20610;-67
2022/04/08 02:31:10;;;;;;;6.10;3.33;;;;;;;12.04;64.53;100031.56;2569918;23;20287;-67
2022/04/08 02:32:11;;;;;;;4.00;3.03;;;;;;;12.11;64.56;100031.28;2570066;23;20403;-67
2022/04/08 02:33:12;;;;;;;4.83;2.93;;;;;;;12.06;64.51;100029.88;2570001;23;20422;-67
2022/04/08 02:34:13;;;;;;;5.30;3.00;;;;;;;12.04;64.75;100037.88;2569886;23;20155;-67
2022/04/08 02:35:13;;;;;;;5.73;3.00;;;;;;;12.03;64.82;100033.56;2570249;23;20786;-67
2022/04/08 02:36:14;;;;;;;8.07;3.37;;;;;;;12.07;64.88;100036.19;2570069;23;20226;-67
2022/04/08 02:37:14;;;;;;;5.17;3.20;;;;;;;11.09;64.70;99882.59;2569900;23;20180;-67
2022/04/08 02:38:15;;;;;;;5.27;3.17;;;;;;;12.12;64.68;100038.38;2570161;23;20156;-67
2022/04/08 02:39:15;;;;;;;5.63;3.20;;;;;;;11.98;64.56;100011.16;2570042;23;20152;-67
2022/04/08 02:40:16;;;;;;;4.67;3.03;;;;;;;12.16;64.49;100036.25;2570146;23;20154;-67
2022/04/08 02:41:16;;;;;;;4.37;3.10;;;;;;;12.18;64.30;100031.78;2570107;23;20149;-67
2022/04/08 02:42:17;;;;;;;6.10;3.10;;;;;;;12.20;64.21;100034.09;2570696;23;20173;-67
2022/04/08 02:43:17;;;;;;;7.23;3.20;;;;;;;11.42;64.10;99922.50;2557748;23;20162;-67
2022/04/08 02:44:18;;;;;;;5.53;2.70;;;;;;;10.77;64.44;99833.09;2557711;23;20163;-67
2022/04/08 02:45:19;;;;;;;5.70;2.90;;;;;;;11.49;64.33;99932.56;2557729;23;20207;-67
2022/04/08 02:46:19;;;;;;;6.07;2.90;;;;;;;12.26;64.25;100057.25;2557615;23;20221;-67
2022/04/08 02:47:20;;;;;;;6.47;3.20;;;;;;;11.29;64.32;99893.31;2557542;23;20167;-67
2022/04/08 02:48:20;;;;;;;5.43;3.07;;;;;;;12.07;64.26;100028.66;2557764;23;20174;-67
2022/04/08 02:49:21;;;;;;;5.33;3.03;;;;;;;12.18;64.60;100045.66;2570865;23;20149;-68
2022/04/08 02:50:21;;;;;;;6.43;3.20;;;;;;;12.22;64.49;100045.50;2571013;23;20484;-67
2022/04/08 02:51:22;;;;;;;6.87;3.10;;;;;;;12.17;64.59;100049.66;2570905;23;20160;-67
2022/04/08 02:52:22;;;;;;;5.73;3.30;;;;;;;11.91;64.68;100023.31;2570878;23;20155;-67
2022/04/08 02:53:23;;;;;;;5.80;3.23;;;;;;;12.12;64.83;100061.38;2570838;23;20164;-67
2022/04/08 02:54:23;;;;;;;5.63;3.33;;;;;;;10.85;64.73;99873.19;2570844;23;20154;-67
2022/04/08 02:55:24;;;;;;;4.53;3.13;;;;;;;12.11;64.79;100072.94;2570987;23;20225;-67
2022/04/08 02:56:25;;;;;;;6.50;3.23;;;;;;;12.08;65.01;100073.84;2570774;23;20199;-67
2022/04/08 02:57:25;;;;;;;7.67;3.73;;;;;;;12.13;64.97;100067.69;2570478;23;20226;-67
2022/04/08 02:58:28;;;;;;;7.10;3.13;;;;;;;12.16;64.79;100070.34;2570858;23;20145;-67
2022/04/08 02:59:29;;;;;;;5.60;3.07;;;;;;;10.94;64.68;99883.56;2570823;23;20145;-67
2022/04/08 03:00:30;;;;;;;4.93;2.97;;;;;;;11.30;64.85;99947.56;2557532;23;20389;-67
2022/04/08 03:01:30;;;;;;;5.50;3.30;;;;;;;12.16;64.65;100087.00;2557676;23;20149;-67
2022/04/08 03:02:31;;;;;;;5.77;3.47;;;;;;;12.03;64.52;100055.00;2570836;23;20156;-67
2022/04/08 03:03:32;;;;;;;4.90;3.27;;;;;;;12.14;64.63;100083.91;2570658;23;20183;-67
2022/04/08 03:04:32;;;;;;;5.93;3.30;;;;;;;12.14;64.79;100089.47;2570712;23;20186;-67
2022/04/08 03:05:33;;;;;;;5.67;3.63;;;;;;;12.09;64.68;100078.19;2570671;23;20149;-67
2022/04/08 03:06:34;;;;;;;6.17;3.50;;;;;;;12.16;64.53;100087.00;2571041;23;20168;-67
2022/04/08 03:07:35;;;;;;;5.97;3.40;;;;;;;11.78;64.54;100025.41;2570820;23;20152;-67
2022/04/08 03:08:35;;;;;;;4.73;3.00;;;;;;;12.25;64.27;100086.28;2557439;23;20230;-67
2022/04/08 03:09:39;;;;;;;6.57;3.00;;;;;;;12.33;63.70;100093.88;2557656;23;20416;-67
2022/04/08 03:10:39;;;;;;;7.63;3.37;;;;;;;12.30;63.96;100082.91;2570875;23;20150;-67
2022/04/08 03:11:40;;;;;;;6.23;2.70;;;;;;;12.25;63.94;100086.28;2570694;23;20891;-67
2022/04/08 03:12:41;;;;;;;6.20;3.33;;;;;;;12.04;63.95;100051.00;2570939;23;20172;-67
2022/04/08 03:13:41;;;;;;;4.90;2.63;;;;;;;12.23;64.13;100086.72;2570449;23;20369;-67
2022/04/08 03:14:42;;;;;;;6.90;3.00;;;;;;;12.24;63.89;100084.75;2570937;23;20236;-67
2022/04/08 03:15:42;;;;;;;4.30;2.33;;;;;;;12.26;63.60;100082.25;2570776;23;20578;-67
2022/04/08 03:16:43;;;;;;;6.13;2.80;;;;;;;12.16;63.67;100089.00;2570522;23;20230;-67
2022/04/08 03:17:45;;;;;;;5.47;2.30;;;;;;;12.17;63.61;100090.56;2570617;23;20238;-67
2022/04/08 03:18:46;;;;;;;6.23;2.50;;;;;;;12.03;63.67;100069.66;2571001;23;20150;-67
2022/04/08 03:19:46;;;;;;;4.10;2.33;;;;;;;12.15;63.59;100087.47;2570764;23;20371;-67
2022/04/08 03:20:47;;;;;;;3.77;2.47;;;;;;;12.12;63.78;100097.47;2570800;23;20591;-67
2022/04/08 03:21:47;;;;;;;4.53;2.27;;;;;;;11.13;63.79;99935.13;2570810;23;20149;-67
2022/04/08 03:22:48;;;;;;;4.97;2.80;;;;;;;12.22;63.48;100095.50;2570687;23;20584;-67
2022/04/08 03:23:48;;;;;;;4.10;2.50;;;;;;;12.23;63.55;100092.28;2570547;23;20301;-67
2022/04/08 03:24:51;;;;;;;3.83;2.10;;;;;;;11.53;62.92;99978.34;2570910;23;20153;-67
2022/04/08 03:25:51;;;;;;;5.83;2.50;;;;;;;12.27;63.27;100081.03;2570737;23;20152;-67
2022/04/08 03:26:52;;;;;;;3.57;2.70;;;;;;;12.26;63.21;100090.59;2570648;23;20383;-67
2022/04/08 03:27:52;;;;;;;4.20;2.40;;;;;;;12.25;63.19;100078.69;2570789;23;20155;-67
2022/04/08 03:28:53;;;;;;;5.73;2.40;;;;;;;12.29;62.93;100082.13;2557596;23;20169;-67
2022/04/08 03:29:54;;;;;;;5.40;2.40;;;;;;;12.19;63.24;100086.09;2557578;23;20177;-67
2022/04/08 03:30:54;;;;;;;4.13;2.40;;;;;;;12.21;63.25;100075.31;2570676;23;20477;-67
2022/04/08 03:31:55;;;;;;;3.80;2.00;;;;;;;12.24;63.27;100082.72;2570606;23;20155;-67
2022/04/08 03:32:55;;;;;;;5.47;2.50;;;;;;;12.17;63.11;100074.66;2557624;23;20161;-67
2022/04/08 03:33:56;;;;;;;4.47;2.33;;;;;;;12.24;63.22;100071.59;2557261;23;20231;-67
2022/04/08 03:34:59;;;;;;;3.43;2.30;;;;;;;12.24;63.18;100074.38;2557583;23;20164;-67
2022/04/08 03:36:00;;;;;;;4.83;2.67;;;;;;;12.30;62.92;100077.34;2558135;23;20182;-67
2022/04/08 03:37:01;;;;;;;3.87;2.30;;;;;;;12.30;62.77;100080.88;2570549;23;20379;-67
2022/04/08 03:38:01;;;;;;;6.27;2.30;;;;;;;12.27;62.77;100087.38;2570788;23;20150;-67
2022/04/08 03:39:02;;;;;;;4.67;2.37;;;;;;;12.30;62.54;100071.78;2570842;23;20177;-67
2022/04/08 03:40:03;;;;;;;4.13;2.30;;;;;;;12.30;62.58;100085.69;2570678;23;20282;-67
2022/04/08 03:41:04;;;;;;;4.83;2.67;;;;;;;12.18;62.74;100072.66;2570597;23;20522;-67
2022/04/08 03:42:06;;;;;;;6.47;2.70;;;;;;;12.23;62.55;100083.94;2557475;23;20766;-67
2022/04/08 03:43:06;;;;;;;4.00;2.47;;;;;;;12.14;62.60;100070.00;2557496;23;20658;-67
2022/04/08 03:44:07;;;;;;;4.47;2.43;;;;;;;12.25;62.34;100084.25;2570616;23;20815;-67
2022/04/08 03:45:08;;;;;;;7.80;2.33;;;;;;;12.20;62.62;100084.84;2570615;23;20223;-67
2022/04/08 03:46:08;;;;;;;6.10;2.30;;;;;;;12.27;62.36;100092.16;2570827;23;20472;-67
2022/04/08 03:47:09;;;;;;;4.73;2.30;;;;;;;12.28;62.39;100085.34;2570740;23;20167;-67
2022/04/08 03:48:09;;;;;;;4.40;2.37;;;;;;;12.28;62.49;100096.47;2570568;23;20153;-67
2022/04/08 03:49:16;;;;;;;6.77;2.63;;;;;;;12.31;62.42;100084.44;2557517;23;20302;-67
2022/04/08 03:50:16;;;;;;;4.67;2.40;;;;;;;12.20;62.25;100079.28;2558848;23;20207;-67
2022/04/08 03:51:17;;;;;;;4.83;2.20;;;;;;;12.35;61.97;100083.06;2570521;23;20387;-67
2022/04/08 03:52:17;;;;;;;4.60;2.37;;;;;;;12.35;62.08;100096.97;2570742;23;20217;-67
2022/04/08 03:53:19;;;;;;;4.37;2.37;;;;;;;12.32;62.11;100088.78;2570046;23;20490;-67
2022/04/08 03:54:20;;;;;;;7.30;2.37;;;;;;;12.10;62.18;100072.16;2570669;23;20698;-65
2022/04/08 03:55:21;;;;;;;4.40;2.20;;;;;;;12.33;61.99;100099.44;2570812;23;20922;-65
2022/04/08 03:56:22;;;;;;;5.37;2.57;;;;;;;12.31;61.57;100099.13;2570682;23;20541;-65
2022/04/08 03:57:22;;;;;;;5.60;2.20;;;;;;;12.34;61.49;100100.22;2570541;23;20179;-65
2022/04/08 03:58:23;;;;;;;5.50;2.30;;;;;;;12.35;61.10;100105.28;2570644;23;20587;-65
2022/04/08 03:59:24;;;;;;;4.03;2.17;;;;;;;12.15;60.82;100068.03;2570639;23;20155;-65
2022/04/08 04:00:25;;;;;;;4.43;2.30;;;;;;;12.14;60.77;100072.78;2570583;23;20153;-67
2022/04/08 04:01:26;;;;;;;5.13;2.30;;;;;;;11.72;60.70;100007.78;2569779;23;20405;-67
2022/04/08 04:02:26;;;;;;;3.83;1.93;;;;;;;12.30;60.89;100105.13;2570474;23;20152;-67
2022/04/08 04:03:27;;;;;;;4.10;2.13;;;;;;;12.24;61.19;100106.97;2570189;23;20231;-67
2022/04/08 04:04:27;;;;;;;4.97;2.10;;;;;;;12.26;61.01;100107.28;2570566;23;20156;-67
2022/04/08 04:05:28;;;;;;;4.97;2.20;;;;;;;12.23;60.94;100114.50;2570545;23;20182;-67
2022/04/08 04:06:29;;;;;;;5.90;2.20;;;;;;;12.17;61.12;100116.34;2570461;23;20542;-67
2022/04/08 04:07:32;;;;;;;5.97;2.43;;;;;;;12.22;61.08;100112.19;2570377;23;20229;-67
2022/04/08 04:08:33;;;;;;;3.97;2.03;;;;;;;12.19;61.04;100113.88;2570591;23;20148;-67
2022/04/08 04:09:34;;;;;;;4.40;2.37;;;;;;;12.25;60.98;100119.63;2570754;23;20383;-67
2022/04/08 04:10:34;;;;;;;4.20;2.37;;;;;;;12.32;60.82;100116.56;2570387;23;20186;-67
2022/04/08 04:11:36;;;;;;;4.07;2.00;;;;;;;12.36;60.58;100122.75;2570441;23;20152;-67
2022/04/08 04:12:36;;;;;;;3.10;2.00;;;;;;;12.35;60.59;100121.22;2570580;23;20755;-67
2022/04/08 04:13:37;;;;;;;3.87;2.40;;;;;;;12.35;60.57;100124.00;2570471;23;20375;-67
2022/04/08 04:14:37;;;;;;;3.87;2.20;;;;;;;12.39;60.56;100124.59;2570530;23;20231;-67
2022/04/08 04:15:38;;;;;;;5.30;2.30;;;;;;;11.96;60.27;100083.81;2570562;23;20229;-68
2022/04/08 04:16:39;;;;;;;4.80;2.03;;;;;;;12.51;59.97;100123.75;2570465;23;20154;-67
2022/04/08 04:17:39;;;;;;;6.17;2.27;;;;;;;12.42;59.81;100116.16;2570217;23;20180;-67
2022/04/08 04:18:40;;;;;;;5.20;2.13;;;;;;;12.28;60.00;100108.38;2570495;23;20772;-67
2022/04/08 04:19:40;;;;;;;8.67;2.30;;;;;;;12.59;59.52;100141.69;2570558;23;20152;-67
2022/04/08 04:20:41;;;;;;;6.93;2.33;;;;;;;12.62;59.20;100146.34;2570504;23;20149;-67
2022/04/08 04:21:41;;;;;;;3.53;2.10;;;;;;;12.61;59.30;100139.22;2570153;23;20156;-67
2022/04/08 04:22:42;;;;;;;4.20;2.53;;;;;;;12.55;59.41;100147.38;2570506;23;20153;-67
2022/04/08 04:23:42;;;;;;;3.43;2.10;;;;;;;12.56;58.96;100126.69;2570043;23;20148;-67
2022/04/08 04:24:43;;;;;;;5.53;1.90;;;;;;;12.69;59.03;100146.81;2570463;23;20152;-67
2022/04/08 04:25:43;;;;;;;3.20;2.00;;;;;;;12.58;59.02;100140.13;2570361;23;20287;-67
2022/04/08 04:26:44;;;;;;;3.07;2.30;;;;;;;12.72;59.02;100148.69;2570247;23;20160;-67
2022/04/08 04:27:44;;;;;;;4.03;2.00;;;;;;;12.80;58.74;100149.94;2570344;23;20156;-67
2022/04/08 04:28:45;;;;;;;4.50;1.97;;;;;;;12.78;58.59;100148.84;2570323;23;20148;-67
2022/04/08 04:29:45;;;;;;;3.50;2.00;;;;;;;12.18;58.75;100070.66;2570556;23;20191;-67
2022/04/08 04:30:46;;;;;;;4.03;2.13;;;;;;;12.81;58.68;100142.38;2570369;23;20515;-67
2022/04/08 04:31:46;;;;;;;2.87;1.87;;;;;;;12.39;58.37;100097.59;2569914;23;20180;-67
2022/04/08 04:32:47;;;;;;;4.50;1.90;;;;;;;12.80;58.40;100141.59;2570493;23;20153;-67
2022/04/08 04:33:48;;;;;;;3.93;2.00;;;;;;;12.81;58.25;100134.06;2569870;23;20152;-67
2022/04/08 04:34:48;;;;;;;3.40;2.13;;;;;;;12.87;58.28;100152.44;2570543;23;20207;-67
2022/04/08 04:35:49;;;;;;;4.57;1.87;;;;;;;12.94;58.27;100157.72;2570445;23;20238;-67
2022/04/08 04:36:50;;;;;;;4.33;2.07;;;;;;;12.96;58.19;100152.50;2570203;23;20238;-67
2022/04/08 04:37:50;;;;;;;3.13;2.20;;;;;;;13.01;57.79;100165.81;2570504;23;20475;-67
2022/04/08 04:38:51;;;;;;;3.33;1.93;;;;;;;12.48;58.07;100097.66;2570313;23;20653;-67
2022/04/08 04:39:51;;;;;;;3.77;2.40;;;;;;;13.01;57.96;100174.16;2570555;23;20541;-68
2022/04/08 04:40:52;;;;;;;3.73;2.13;;;;;;;12.05;57.90;100016.44;2570488;23;20156;-67
2022/04/08 04:41:52;;;;;;;3.30;2.13;;;;;;;13.12;57.42;100182.06;2570330;23;20152;-67
2022/04/08 04:42:53;;;;;;;3.83;2.10;;;;;;;13.16;57.35;100179.91;2570375;23;20532;-67
2022/04/08 04:43:53;;;;;;;5.67;2.40;;;;;;;13.13;57.63;100189.16;2570154;23;20185;-67